createdAt,value
2023-05-15T00:00:46.649Z,3.20
2023-05-15T00:03:14.609Z,3.30
2023-05-15T00:05:42.902Z,3.30
2023-05-15T00:08:10.806Z,3.20
2023-05-15T00:10:40.928Z,3.60
2023-05-15T00:13:10.815Z,3.42
2023-05-15T00:15:38.707Z,3.03
2023-05-15T00:18:08.084Z,3.30
2023-05-15T00:20:36.237Z,3.20
2023-05-15T00:23:04.184Z,3.03
2023-05-15T00:25:32.150Z,3.08
2023-05-15T00:28:00.036Z,2.95
2023-05-15T00:30:30.446Z,3.20
2023-05-15T00:32:58.368Z,3.30
2023-05-15T00:35:27.620Z,2.92
2023-05-15T00:37:55.611Z,3.30
2023-05-15T00:40:23.616Z,3.20
2023-05-15T00:42:51.706Z,3.00
2023-05-15T00:45:19.743Z,3.38
2023-05-15T00:47:48.525Z,3.10
2023-05-15T00:50:16.415Z,3.38
2023-05-15T00:52:45.908Z,3.10
2023-05-15T00:55:13.861Z,3.15
2023-05-15T00:57:42.394Z,3.00
2023-05-15T01:00:11.786Z,3.05
2023-05-15T01:02:39.882Z,3.10
2023-05-15T01:05:09.035Z,2.97
2023-05-15T01:07:44.851Z,2.90
2023-05-15T01:10:14.170Z,3.10
2023-05-15T01:12:42.148Z,3.22
2023-05-15T01:15:10.914Z,2.95
2023-05-15T01:17:38.872Z,2.92
2023-05-15T01:20:09.277Z,3.30
2023-05-15T01:23:00.495Z,3.20
2023-05-15T01:26:10.453Z,3.08
2023-05-15T01:28:40.896Z,3.10
2023-05-15T01:31:12.155Z,3.08
2023-05-15T01:33:41.537Z,2.85
2023-05-15T01:36:13.271Z,2.83
2023-05-15T01:38:44.042Z,3.25
2023-05-15T01:41:17.118Z,2.75
2023-05-15T01:43:50.452Z,3.08
2023-05-15T01:46:19.386Z,3.08
2023-05-15T01:48:47.416Z,2.90
2023-05-15T01:51:15.345Z,2.97
2023-05-15T01:53:43.268Z,2.80
2023-05-15T01:56:13.549Z,2.67
2023-05-15T01:58:41.706Z,3.03
2023-05-15T02:01:11.126Z,2.88
2023-05-15T02:03:39.121Z,2.90
2023-05-15T02:06:07.433Z,3.03
2023-05-15T02:08:35.379Z,2.80
2023-05-15T02:11:04.412Z,3.05
2023-05-15T02:13:32.391Z,2.80
2023-05-15T02:16:00.333Z,2.80
2023-05-15T02:18:30.000Z,3.10
2023-05-15T02:21:00.969Z,3.00
2023-05-15T02:23:28.929Z,2.75
2023-05-15T02:26:15.736Z,3.08
2023-05-15T02:28:49.437Z,2.72
2023-05-15T02:31:21.696Z,2.88
2023-05-15T02:33:53.838Z,2.88
2023-05-15T02:36:23.569Z,2.95
2023-05-15T02:38:53.226Z,2.85
2023-05-15T02:41:21.319Z,2.85
2023-05-15T02:43:49.303Z,2.90
2023-05-15T02:46:17.693Z,2.55
2023-05-15T02:48:45.758Z,2.88
2023-05-15T02:51:15.611Z,2.75
2023-05-15T02:53:44.160Z,2.90
2023-05-15T02:56:12.117Z,2.83
2023-05-15T02:58:40.016Z,2.47
2023-05-15T03:01:08.282Z,2.40
2023-05-15T03:03:36.326Z,2.85
2023-05-15T03:06:04.290Z,2.45
2023-05-15T03:08:33.533Z,2.60
2023-05-15T03:11:01.488Z,2.55
2023-05-15T03:13:29.453Z,2.63
2023-05-15T03:15:57.459Z,2.65
2023-05-15T03:18:25.449Z,2.40
2023-05-15T03:20:53.712Z,2.72
2023-05-15T03:23:21.707Z,2.95
2023-05-15T03:25:51.079Z,2.65
2023-05-15T03:28:19.031Z,2.60
2023-05-15T03:30:46.956Z,2.80
2023-05-15T03:33:14.897Z,2.60
2023-05-15T03:35:42.795Z,2.67
2023-05-15T03:38:10.683Z,2.78
2023-05-15T03:40:39.639Z,2.60
2023-05-15T03:43:08.933Z,2.95
2023-05-15T03:45:37.375Z,2.80
2023-05-15T03:48:05.979Z,2.60
2023-05-15T03:50:34.267Z,2.80
2023-05-15T03:53:02.158Z,2.63
2023-05-15T03:55:30.039Z,2.25
2023-05-15T03:57:58.407Z,2.50
2023-05-15T04:00:27.802Z,2.45
2023-05-15T04:02:55.920Z,2.33
2023-05-15T04:05:24.059Z,2.83
2023-05-15T04:07:52.132Z,2.30
2023-05-15T04:10:20.316Z,2.63
2023-05-15T04:12:48.393Z,2.53
2023-05-15T04:15:17.340Z,2.67
2023-05-15T04:17:46.962Z,2.55
2023-05-15T04:20:15.694Z,2.40
2023-05-15T04:22:43.759Z,2.70
2023-05-15T04:25:12.026Z,2.42
2023-05-15T04:27:40.102Z,2.55
2023-05-15T04:30:09.003Z,2.20
2023-05-15T04:32:37.459Z,2.60
2023-05-15T04:35:09.413Z,2.63
2023-05-15T04:37:37.348Z,2.28
2023-05-15T04:40:07.194Z,2.40
2023-05-15T04:42:35.119Z,2.28
2023-05-15T04:45:03.313Z,2.42
2023-05-15T04:47:31.348Z,2.65
2023-05-15T04:49:59.284Z,2.33
2023-05-15T04:52:28.584Z,2.58
2023-05-15T04:54:56.476Z,2.60
2023-05-15T04:57:25.533Z,2.90
2023-05-15T04:59:53.523Z,2.40
2023-05-15T05:02:22.264Z,2.75
2023-05-15T05:04:50.407Z,2.60
2023-05-15T05:07:18.395Z,2.53
2023-05-15T05:09:47.648Z,2.38
2023-05-15T05:12:15.613Z,2.67
2023-05-15T05:14:44.654Z,2.83
2023-05-15T05:17:12.598Z,2.30
2023-05-15T05:19:40.530Z,2.55
2023-05-15T05:22:08.482Z,2.45
2023-05-15T05:24:37.533Z,2.65
2023-05-15T05:27:07.147Z,2.50
2023-05-15T05:29:35.166Z,2.50
2023-05-15T05:32:03.127Z,2.30
2023-05-15T05:34:31.009Z,2.50
2023-05-15T05:36:58.917Z,2.42
2023-05-15T05:39:26.843Z,2.63
2023-05-15T05:41:54.731Z,2.70
2023-05-15T05:44:24.446Z,3.30
2023-05-15T05:46:53.200Z,2.65
2023-05-15T05:49:21.262Z,3.10
2023-05-15T05:51:49.278Z,2.63
2023-05-15T05:54:18.276Z,3.00
2023-05-15T05:56:46.258Z,2.92
2023-05-15T05:59:14.240Z,3.00
2023-05-15T06:01:43.506Z,3.03
2023-05-15T06:04:11.570Z,3.30
2023-05-15T06:06:39.466Z,3.20
2023-05-15T06:09:07.409Z,3.60
2023-05-15T06:11:36.734Z,3.60
2023-05-15T06:14:04.950Z,3.17
2023-05-15T06:16:32.969Z,3.08
2023-05-15T06:19:02.260Z,3.28
2023-05-15T06:21:30.200Z,3.30
2023-05-15T06:23:59.176Z,3.38
2023-05-15T06:26:27.156Z,3.50
2023-05-15T06:28:55.085Z,3.38
2023-05-15T06:31:23.147Z,3.22
2023-05-15T06:33:51.148Z,3.30
2023-05-15T06:36:20.609Z,3.63
2023-05-15T06:38:48.589Z,3.47
2023-05-15T06:41:16.555Z,3.97
2023-05-15T06:43:44.450Z,3.25
2023-05-15T06:46:12.405Z,3.53
2023-05-15T06:48:40.321Z,3.53
2023-05-15T06:51:08.272Z,3.78
2023-05-15T06:53:37.569Z,3.42
2023-05-15T06:56:06.212Z,3.55
2023-05-15T06:58:34.479Z,3.75
2023-05-15T07:01:03.740Z,3.65
2023-05-15T07:03:31.732Z,3.58
2023-05-15T07:05:59.673Z,3.70
2023-05-15T07:08:27.784Z,3.78
2023-05-15T07:10:57.018Z,3.72
2023-05-15T07:13:24.917Z,3.50
2023-05-15T07:15:52.896Z,3.88
2023-05-15T07:18:20.823Z,3.45
2023-05-15T07:20:48.782Z,3.47
2023-05-15T07:23:17.037Z,3.60
2023-05-15T07:25:46.091Z,3.38
2023-05-15T07:28:15.477Z,3.80
2023-05-15T07:30:44.526Z,3.40
2023-05-15T07:33:12.475Z,3.42
2023-05-15T07:35:40.398Z,3.60
2023-05-15T07:38:09.184Z,3.70
2023-05-15T07:40:37.128Z,3.85
2023-05-15T07:43:05.014Z,3.80
2023-05-15T07:45:34.355Z,3.58
2023-05-15T07:48:15.800Z,3.50
2023-05-15T07:50:43.766Z,5.43
2023-05-15T07:53:11.810Z,6.15
2023-05-15T07:55:39.708Z,5.30
2023-05-15T07:58:08.047Z,9.75
2023-05-15T08:00:37.332Z,9.38
2023-05-15T08:03:05.517Z,7.13
2023-05-15T08:05:33.498Z,7.10
2023-05-15T08:08:01.567Z,5.63
2023-05-15T08:10:29.512Z,7.75
2023-05-15T08:12:57.434Z,8.98
2023-05-15T08:15:25.498Z,8.85
2023-05-15T08:17:55.018Z,8.77
2023-05-15T08:20:23.110Z,8.77
2023-05-15T08:22:51.164Z,8.30
2023-05-15T08:25:19.180Z,8.45
2023-05-15T08:27:47.210Z,8.65
2023-05-15T08:30:15.480Z,7.10
2023-05-15T08:32:44.418Z,8.25
2023-05-15T08:35:13.773Z,7.55
2023-05-15T08:37:41.798Z,6.85
2023-05-15T08:40:10.290Z,7.55
2023-05-15T08:42:41.277Z,6.60
2023-05-15T08:45:10.454Z,6.40
2023-05-15T08:47:40.710Z,6.95
2023-05-15T08:50:10.950Z,6.10
2023-05-15T08:52:41.689Z,6.18
2023-05-15T08:55:10.197Z,6.00
2023-05-15T08:57:38.419Z,6.28
2023-05-15T09:00:09.412Z,6.05
2023-05-15T09:02:37.687Z,6.18
2023-05-15T09:05:06.252Z,5.80
2023-05-15T09:07:34.281Z,5.85
2023-05-15T09:10:04.209Z,6.22
2023-05-15T09:12:33.955Z,5.82
2023-05-15T09:15:11.734Z,5.63
2023-05-15T09:17:39.809Z,5.43
2023-05-15T09:20:09.361Z,5.82
2023-05-15T09:22:37.478Z,5.50
2023-05-15T09:25:08.070Z,5.25
2023-05-15T09:27:42.775Z,5.20
2023-05-15T09:30:10.912Z,5.53
2023-05-15T09:32:38.995Z,5.25
2023-05-15T09:35:08.146Z,5.18
2023-05-15T09:37:36.117Z,5.47
2023-05-15T09:40:12.273Z,5.45
2023-05-15T09:42:40.185Z,4.80
2023-05-15T09:45:09.822Z,4.82
2023-05-15T09:47:37.933Z,4.85
2023-05-15T09:50:06.717Z,4.80
2023-05-15T09:52:34.627Z,5.20
2023-05-15T09:55:02.616Z,4.50
2023-05-15T09:57:31.950Z,4.97
2023-05-15T10:00:02.438Z,4.85
2023-05-15T10:02:41.606Z,4.65
2023-05-15T10:05:09.934Z,4.60
2023-05-15T10:07:37.966Z,4.90
2023-05-15T10:10:06.815Z,5.45
2023-05-15T10:12:36.704Z,4.65
2023-05-15T10:15:05.029Z,4.93
2023-05-15T10:17:33.175Z,4.63
2023-05-15T10:20:01.464Z,4.40
2023-05-15T10:22:30.564Z,4.40
2023-05-15T10:25:04.594Z,4.82
2023-05-15T10:27:32.566Z,4.38
2023-05-15T10:30:02.138Z,4.57
2023-05-15T10:32:30.732Z,4.43
2023-05-15T10:34:58.652Z,4.35
2023-05-15T10:37:26.720Z,4.03
2023-05-15T10:39:55.864Z,4.22
2023-05-15T10:42:24.105Z,3.95
2023-05-15T10:44:52.033Z,4.28
2023-05-15T10:47:21.803Z,4.30
2023-05-15T10:49:49.755Z,4.18
2023-05-15T10:52:17.696Z,4.20
2023-05-15T10:54:45.997Z,4.20
2023-05-15T10:57:15.084Z,3.88
2023-05-15T10:59:44.120Z,3.80
2023-05-15T11:02:31.630Z,4.35
2023-05-15T11:05:00.183Z,4.20
2023-05-15T11:07:28.296Z,3.92
2023-05-15T11:09:56.379Z,3.97
2023-05-15T11:12:24.520Z,3.92
2023-05-15T11:15:21.010Z,3.90
2023-05-15T11:18:06.583Z,3.90
2023-05-15T11:20:37.110Z,4.20
2023-05-15T11:23:05.216Z,4.28
2023-05-15T11:25:33.272Z,3.80
2023-05-15T11:28:01.198Z,3.50
2023-05-15T11:30:39.373Z,4.05
2023-05-15T11:33:11.911Z,3.90
2023-05-15T11:35:42.105Z,3.53
2023-05-15T11:38:14.873Z,3.90
2023-05-15T11:40:47.570Z,3.72
2023-05-15T11:43:19.560Z,3.85
2023-05-15T11:45:48.250Z,3.90
2023-05-15T11:48:18.053Z,3.58
2023-05-15T11:50:47.385Z,3.80
2023-05-15T11:53:15.435Z,3.65
2023-05-15T11:55:44.043Z,3.78
2023-05-15T11:58:12.813Z,4.00
2023-05-15T12:00:41.011Z,3.80
2023-05-15T12:03:15.206Z,3.80
2023-05-15T12:05:54.084Z,3.60
2023-05-15T12:08:26.057Z,3.78
2023-05-15T12:10:54.145Z,3.50
2023-05-15T12:13:22.372Z,3.88
2023-05-15T12:15:51.432Z,3.60
2023-05-15T12:18:19.429Z,3.78
2023-05-15T12:20:49.788Z,3.65
2023-05-15T12:23:18.119Z,3.58
2023-05-15T12:25:46.522Z,3.60
2023-05-15T12:28:14.432Z,3.70
2023-05-15T12:30:42.632Z,3.40
2023-05-15T12:33:11.105Z,3.65
2023-05-15T12:35:42.876Z,3.78
2023-05-15T12:38:15.556Z,3.25
2023-05-15T12:40:44.454Z,3.97
2023-05-15T12:43:12.386Z,3.33
2023-05-15T12:45:40.735Z,3.50
2023-05-15T12:48:08.947Z,3.55
2023-05-15T12:50:37.012Z,3.30
2023-05-15T12:53:05.930Z,3.80
2023-05-15T12:55:36.316Z,3.50
2023-05-15T12:58:07.013Z,3.22
2023-05-15T13:00:35.353Z,3.67
2023-05-15T13:03:03.411Z,3.75
2023-05-15T13:05:33.120Z,3.60
2023-05-15T13:08:01.399Z,3.42
2023-05-15T13:10:29.484Z,3.53
2023-05-15T13:12:58.954Z,3.15
2023-05-15T13:15:28.996Z,3.17
2023-05-15T13:18:01.894Z,3.42
2023-05-15T13:20:30.024Z,3.67
2023-05-15T13:22:57.941Z,3.20
2023-05-15T13:25:25.883Z,3.13
2023-05-15T13:27:53.874Z,3.40
2023-05-15T13:30:23.367Z,3.50
2023-05-15T13:32:55.407Z,3.00
2023-05-15T13:35:23.736Z,3.50
2023-05-15T13:37:51.684Z,3.30
2023-05-15T13:40:19.684Z,3.22
2023-05-15T13:42:47.622Z,3.25
2023-05-15T13:45:16.819Z,3.40
2023-05-15T13:47:46.296Z,3.20
2023-05-15T13:50:14.888Z,3.00
2023-05-15T13:52:43.271Z,3.30
2023-05-15T13:55:11.721Z,3.03
2023-05-15T13:57:39.832Z,3.13
2023-05-15T14:00:10.685Z,2.95
2023-05-15T14:02:38.722Z,2.95
2023-05-15T14:05:09.302Z,3.00
2023-05-15T14:07:37.338Z,3.33
2023-05-15T14:10:06.129Z,2.88
2023-05-15T14:12:34.197Z,3.15
2023-05-15T14:15:02.207Z,2.70
2023-05-15T14:17:30.154Z,2.97
2023-05-15T14:19:58.097Z,2.90
2023-05-15T14:22:27.615Z,3.08
2023-05-15T14:24:55.514Z,2.97
2023-05-15T14:27:23.757Z,3.33
2023-05-15T14:29:51.928Z,3.13
2023-05-15T14:32:20.002Z,3.00
2023-05-15T14:34:50.873Z,3.30
2023-05-15T14:37:19.733Z,3.08
2023-05-15T14:39:49.081Z,3.08
2023-05-15T14:42:17.418Z,3.35
2023-05-15T14:44:45.460Z,3.25
2023-05-15T14:47:13.723Z,2.97
2023-05-15T14:49:41.864Z,3.00
2023-05-15T14:52:10.610Z,3.08
2023-05-15T14:54:38.807Z,3.30
2023-05-15T14:57:08.275Z,3.17
2023-05-15T14:59:36.520Z,3.22
2023-05-15T15:02:04.501Z,3.40
2023-05-15T15:04:34.350Z,3.10
2023-05-15T15:07:04.490Z,3.50
2023-05-15T15:09:32.479Z,3.10
2023-05-15T15:12:00.482Z,3.38
2023-05-15T15:14:30.354Z,3.10
2023-05-15T15:16:58.258Z,3.13
2023-05-15T15:19:26.259Z,2.90
2023-05-15T15:21:54.176Z,3.05
2023-05-15T15:24:22.166Z,3.42
2023-05-15T15:26:50.094Z,3.53
2023-05-15T15:29:18.092Z,3.25
2023-05-15T15:31:47.519Z,3.08
2023-05-15T15:34:15.797Z,3.13
2023-05-15T15:36:43.726Z,2.80
2023-05-15T15:39:12.975Z,3.35
2023-05-15T15:41:41.088Z,3.10
2023-05-15T15:44:09.147Z,3.15
2023-05-15T15:46:37.050Z,3.20
2023-05-15T15:49:07.448Z,3.10
2023-05-15T15:51:35.522Z,3.03
2023-05-15T15:54:03.546Z,2.95
2023-05-15T15:56:31.484Z,2.95
2023-05-15T15:58:59.394Z,2.80
2023-05-15T16:01:27.372Z,3.00
2023-05-15T16:03:55.451Z,3.10
2023-05-15T16:06:24.769Z,3.00
2023-05-15T16:08:52.775Z,3.03
2023-05-15T16:11:21.413Z,3.22
2023-05-15T16:13:49.329Z,3.13
2023-05-15T16:16:17.311Z,3.10
2023-05-15T16:18:45.825Z,2.95
2023-05-15T16:21:13.923Z,3.00
2023-05-15T16:23:43.203Z,2.92
2023-05-15T16:26:11.196Z,3.08
2023-05-15T16:28:39.165Z,2.80
2023-05-15T16:31:07.909Z,3.20
2023-05-15T16:33:35.884Z,3.13
2023-05-15T16:36:05.129Z,2.95
2023-05-15T16:38:33.068Z,3.28
2023-05-15T16:41:02.462Z,2.85
2023-05-15T16:43:30.427Z,2.83
2023-05-15T16:45:58.931Z,2.90
2023-05-15T16:48:27.930Z,3.00
2023-05-15T16:50:55.923Z,2.85
2023-05-15T16:53:23.876Z,3.03
2023-05-15T16:55:51.833Z,2.90
2023-05-15T16:58:21.163Z,2.92
2023-05-15T17:01:05.261Z,3.10
2023-05-15T17:03:33.288Z,3.05
2023-05-15T17:06:01.314Z,3.08
2023-05-15T17:08:29.424Z,3.10
2023-05-15T17:10:57.334Z,3.10
2023-05-15T17:13:26.560Z,3.05
2023-05-15T17:15:55.643Z,3.10
2023-05-15T17:18:24.915Z,2.92
2023-05-15T17:20:52.807Z,3.13
2023-05-15T17:23:22.841Z,2.88
2023-05-15T17:25:51.289Z,2.90
2023-05-15T17:28:19.224Z,2.92
2023-05-15T17:30:47.441Z,3.00
2023-05-15T17:33:15.500Z,2.97
2023-05-15T17:35:44.770Z,3.10
2023-05-15T17:38:12.778Z,3.03
2023-05-15T17:40:41.033Z,3.10
2023-05-15T17:43:10.186Z,3.00
2023-05-15T17:45:38.204Z,3.08
2023-05-15T17:48:06.942Z,3.20
2023-05-15T17:50:37.954Z,2.70
2023-05-15T17:53:07.243Z,2.92
2023-05-15T17:55:35.185Z,3.17
2023-05-15T17:58:03.203Z,2.83
2023-05-15T18:00:31.095Z,3.05
2023-05-15T18:03:00.721Z,3.15
2023-05-15T18:05:29.500Z,3.10
2023-05-15T18:08:00.249Z,3.03
2023-05-15T18:10:29.573Z,3.00
2023-05-15T18:12:57.529Z,3.38
2023-05-15T18:15:25.650Z,3.40
2023-05-15T18:17:53.858Z,3.10
2023-05-15T18:20:21.993Z,3.38
2023-05-15T18:22:50.727Z,3.15
2023-05-15T18:25:18.979Z,3.45
2023-05-15T18:27:48.251Z,4.50
2023-05-15T18:30:16.409Z,3.50
2023-05-15T18:32:44.363Z,3.60
2023-05-15T18:35:12.409Z,3.55
2023-05-15T18:37:40.384Z,3.95
2023-05-15T18:40:09.675Z,3.63
2023-05-15T18:42:37.623Z,3.75
2023-05-15T18:45:08.427Z,3.90
2023-05-15T18:47:36.435Z,3.65
2023-05-15T18:50:04.615Z,3.40
2023-05-15T18:52:32.662Z,3.53
2023-05-15T18:55:01.411Z,3.92
2023-05-15T18:57:29.334Z,3.60
2023-05-15T18:59:57.397Z,3.30
2023-05-15T19:02:26.680Z,3.40
2023-05-15T19:04:54.583Z,3.20
2023-05-15T19:07:22.641Z,4.05
2023-05-15T19:09:50.579Z,3.30
2023-05-15T19:12:18.557Z,3.35
2023-05-15T19:14:46.687Z,3.15
2023-05-15T19:17:14.737Z,3.70
2023-05-15T19:19:43.998Z,3.47
2023-05-15T19:22:11.940Z,3.25
2023-05-15T19:24:39.948Z,3.20
2023-05-15T19:27:07.923Z,3.38
2023-05-15T19:29:35.828Z,3.30
2023-05-15T19:32:03.834Z,3.40
2023-05-15T19:34:31.993Z,3.53
2023-05-15T19:37:01.477Z,3.30
2023-05-15T19:39:29.371Z,4.20
2023-05-15T19:41:57.906Z,3.50
2023-05-15T19:44:25.841Z,3.40
2023-05-15T19:46:54.564Z,3.28
2023-05-15T19:49:22.601Z,2.97
2023-05-15T19:51:50.554Z,3.30
2023-05-15T19:54:19.841Z,3.10
2023-05-15T19:56:47.775Z,3.00
2023-05-15T19:59:15.692Z,2.88
2023-05-15T20:01:43.664Z,3.63
2023-05-15T20:04:13.471Z,3.60
2023-05-15T20:06:41.871Z,3.20
2023-05-15T20:09:10.044Z,3.45
2023-05-15T20:11:39.297Z,3.30
2023-05-15T20:14:07.227Z,3.42
2023-05-15T20:16:35.325Z,3.05
2023-05-15T20:19:04.072Z,3.30
2023-05-15T20:21:32.568Z,3.05
2023-05-15T20:24:00.467Z,3.15
2023-05-15T20:26:28.409Z,3.55
2023-05-15T20:28:57.663Z,3.33
2023-05-15T20:31:25.633Z,3.40
2023-05-15T20:33:53.696Z,3.38
2023-05-15T20:36:22.678Z,3.25
2023-05-15T20:38:51.777Z,3.30
2023-05-15T20:41:22.248Z,3.40
2023-05-15T20:43:51.315Z,3.42
2023-05-15T20:46:21.148Z,4.00
2023-05-15T20:48:49.133Z,3.60
2023-05-15T20:51:17.143Z,3.53
2023-05-15T20:53:45.040Z,3.90
2023-05-15T20:56:12.929Z,3.53
2023-05-15T20:58:40.828Z,3.72
2023-05-15T21:01:08.835Z,3.38
2023-05-15T21:03:38.430Z,3.30
2023-05-15T21:06:06.522Z,3.42
2023-05-15T21:08:34.431Z,3.80
2023-05-15T21:11:02.342Z,3.78
2023-05-15T21:13:30.335Z,3.40
2023-05-15T21:15:58.257Z,3.50
2023-05-15T21:18:26.131Z,3.33
2023-05-15T21:20:55.517Z,3.47
2023-05-15T21:23:23.417Z,3.60
2023-05-15T21:25:51.310Z,3.42
2023-05-15T21:28:19.195Z,3.33
2023-05-15T21:30:47.171Z,3.65
2023-05-15T21:33:15.163Z,3.67
2023-05-15T21:35:43.126Z,3.45
2023-05-15T21:38:12.445Z,3.30
2023-05-15T21:40:40.898Z,3.50
2023-05-15T21:43:08.927Z,3.60
2023-05-15T21:45:36.812Z,3.60
2023-05-15T21:48:04.914Z,3.65
2023-05-15T21:50:32.981Z,3.45
2023-05-15T21:53:01.108Z,3.35
2023-05-15T21:55:30.330Z,3.50
2023-05-15T21:57:58.255Z,3.92
2023-05-15T22:00:26.815Z,3.55
2023-05-15T22:02:55.016Z,3.33
2023-05-15T22:05:23.125Z,3.30
2023-05-15T22:07:51.026Z,3.42
2023-05-15T22:10:18.978Z,3.60
2023-05-15T22:12:49.404Z,3.13
2023-05-15T22:15:17.407Z,3.10
2023-05-15T22:17:45.439Z,3.40
2023-05-15T22:20:14.104Z,3.22
2023-05-15T22:22:43.792Z,3.20
2023-05-15T22:25:11.905Z,3.40
2023-05-15T22:27:39.815Z,3.00
2023-05-15T22:30:10.393Z,3.08
2023-05-15T22:32:38.373Z,3.13
2023-05-15T22:35:08.238Z,3.50
2023-05-15T22:37:36.706Z,3.28
2023-05-15T22:40:07.186Z,3.30
2023-05-15T22:42:35.120Z,3.33
2023-05-15T22:45:03.288Z,3.20
2023-05-15T22:47:32.612Z,3.40
2023-05-15T22:50:00.714Z,2.80
2023-05-15T22:52:28.697Z,3.03
2023-05-15T22:54:56.613Z,3.00
2023-05-15T22:57:25.751Z,2.97
2023-05-15T22:59:53.685Z,3.03
2023-05-15T23:02:21.652Z,3.13
2023-05-15T23:04:50.991Z,2.95
2023-05-15T23:07:18.902Z,3.20
2023-05-15T23:09:46.784Z,3.42
2023-05-15T23:12:14.839Z,3.15
2023-05-15T23:14:42.738Z,3.25
2023-05-15T23:17:10.652Z,2.90
2023-05-15T23:19:38.586Z,2.90
2023-05-15T23:22:07.977Z,2.80
2023-05-15T23:24:35.874Z,2.95
2023-05-15T23:27:04.541Z,2.88
2023-05-15T23:29:33.743Z,3.10
2023-05-15T23:32:01.612Z,2.65
2023-05-15T23:34:29.615Z,3.03
2023-05-15T23:36:57.575Z,2.90
2023-05-15T23:39:26.805Z,3.05
2023-05-15T23:41:54.691Z,2.92
2023-05-15T23:44:22.607Z,2.72
2023-05-15T23:46:50.518Z,2.83
2023-05-15T23:49:18.841Z,2.83
2023-05-15T23:51:46.844Z,2.88
2023-05-15T23:54:14.706Z,2.75
2023-05-15T23:56:43.927Z,3.00
2023-05-15T23:59:12.157Z,2.92
